Time;durP1;ratioP1;P1;durP2;ratioP2;P2;SDS_P1;SDS_P2;PMS_P1;PMS_P2;Temp;Humidity;BMP_temperature;BMP_pressure;BME280_temperature;BME280_humidity;BME280_pressure;Samples;Min_cycle;Max_cycle;Signal;HPM_P1;HPM_P2
2021/12/07 00:00:51;;;;;;;22.80;14.90;;;5.00;93.40;;;;;;20842758;28;20237;-72
2021/12/07 00:10:53;;;;;;;23.57;14.20;;;5.00;93.40;;;;;;20842526;28;20205;-72
2021/12/07 00:20:55;;;;;;;23.47;13.93;;;5.00;93.60;;;;;;20839189;28;20240;-72
2021/12/07 00:31:08;;;;;;;20.83;12.30;;;5.10;93.20;;;;;;20841431;28;20266;-72
2021/12/07 00:41:10;;;;;;;17.57;11.70;;;;;;;;;;20839780;28;20654;-73
2021/12/07 00:51:12;;;;;;;18.37;11.67;;;5.20;93.00;;;;;;20839179;28;20282;-73
2021/12/07 01:01:16;;;;;;;15.60;10.37;;;5.20;93.20;;;;;;20838176;28;20546;-72
2021/12/07 01:52:39;;;;;;;13.70;9.80;;;5.10;93.50;;;;;;20834335;28;20295;-71
2021/12/07 02:02:41;;;;;;;13.17;8.40;;;5.00;93.40;;;;;;20833346;28;20687;-71
2021/12/07 02:12:46;;;;;;;12.23;7.27;;;4.80;93.70;;;;;;20832478;28;20275;-71
2021/12/07 02:22:48;;;;;;;9.57;6.97;;;4.90;94.00;;;;;;20830976;28;20259;-74
2021/12/07 02:32:54;;;;;;;7.53;5.67;;;4.70;94.20;;;;;;20831079;28;20232;-73
2021/12/07 02:42:56;;;;;;;7.83;5.80;;;4.70;94.30;;;;;;20830408;28;20208;-71
2021/12/07 02:52:58;;;;;;;6.70;4.50;;;4.80;94.40;;;;;;20830565;28;20310;-72
2021/12/07 03:03:06;;;;;;;4.83;3.90;;;4.70;94.60;;;;;;20829807;28;20259;-72
2021/12/07 03:33:49;;;;;;;3.87;2.87;;;4.70;94.70;;;;;;20909909;28;20239;-72
2021/12/07 03:43:51;;;;;;;3.03;2.40;;;4.80;94.80;;;;;;20910545;28;20612;-72
2021/12/07 03:53:53;;;;;;;3.23;2.67;;;4.80;94.90;;;;;;20911552;28;20302;-72
2021/12/07 04:03:54;;;;;;;3.37;2.87;;;4.80;95.00;;;;;;20925191;28;20696;-72
2021/12/07 04:13:56;;;;;;;3.80;3.20;;;4.80;94.90;;;;;;20924311;28;20242;-72
2021/12/07 04:23:58;;;;;;;3.97;3.03;;;4.80;95.30;;;;;;20924012;28;20205;-71
2021/12/07 04:33:59;;;;;;;4.57;3.10;;;4.80;95.50;;;;;;20922914;28;20239;-72
2021/12/07 04:44:03;;;;;;;4.37;3.40;;;4.90;95.60;;;;;;20922126;28;20661;-73
2021/12/07 05:04:32;;;;;;;6.90;3.90;;;4.90;95.70;;;;;;20920330;28;20242;-72
2021/12/07 05:14:36;;;;;;;4.50;3.57;;;4.90;95.90;;;;;;20919854;28;20580;-72
2021/12/07 05:24:51;;;;;;;5.07;3.00;;;5.00;96.00;;;;;;20866132;28;20227;-72
2021/12/07 05:45:16;;;;;;;4.57;2.87;;;5.00;96.40;;;;;;20835214;28;20205;-72
2021/12/07 05:55:18;;;;;;;6.00;2.80;;;5.00;96.50;;;;;;20834484;28;20236;-72
2021/12/07 06:05:22;;;;;;;5.78;2.78;;;5.00;96.50;;;;;;20830713;28;20441;-73
2021/12/07 06:15:26;;;;;;;5.00;2.13;;;5.20;96.60;;;;;;20832344;28;20232;-76
2021/12/07 06:25:29;;;;;;;2.97;1.90;;;5.20;96.80;;;;;;20830776;28;20617;-76
2021/12/07 06:35:30;;;;;;;4.20;1.93;;;5.20;96.60;;;;;;20829257;28;20306;-74
2021/12/07 06:45:32;;;;;;;4.40;2.20;;;5.20;96.50;;;;;;20829828;28;20268;-75
2021/12/07 06:55:34;;;;;;;6.17;2.10;;;5.20;96.70;;;;;;20828710;28;20259;-73
2021/12/07 07:05:36;;;;;;;7.17;1.97;;;5.30;97.10;;;;;;20829352;28;20239;-73
2021/12/07 07:16:18;;;;;;;5.60;1.93;;;5.30;96.70;;;;;;21066409;27;20683;-74
2021/12/07 07:26:20;;;;;;;7.60;2.00;;;5.40;96.80;;;;;;21019116;28;20273;-73
2021/12/07 07:36:22;;;;;;;5.23;2.13;;;5.40;96.70;;;;;;21061568;28;20260;-71
2021/12/07 07:46:24;;;;;;;7.83;2.30;;;5.40;96.70;;;;;;21062059;28;20203;-73
2021/12/07 07:56:27;;;;;;;5.47;2.27;;;5.50;96.60;;;;;;21063457;28;20207;-75
2021/12/07 08:06:29;;;;;;;8.83;2.60;;;5.60;96.50;;;;;;21061448;28;20673;-72
2021/12/07 08:16:40;;;;;;;7.13;2.53;;;5.70;96.40;;;;;;21061889;28;20257;-72
2021/12/07 08:26:42;;;;;;;5.40;2.30;;;5.90;96.20;;;;;;21010766;28;20317;-70
2021/12/07 08:36:43;;;;;;;6.47;2.50;;;5.90;96.10;;;;;;21004421;28;20262;-70
2021/12/07 08:46:45;;;;;;;12.70;2.57;;;6.00;95.80;;;;;;21003127;28;20237;-72
2021/12/07 09:07:08;;;;;;;9.40;2.30;;;6.20;95.30;;;;;;20999658;28;20238;-72
2021/12/07 09:17:12;;;;;;;8.27;2.80;;;6.20;95.00;;;;;;20999014;28;20618;-70
2021/12/07 09:27:14;;;;;;;7.57;2.80;;;6.40;95.00;;;;;;20989838;28;20264;-74
2021/12/07 09:37:19;;;;;;;7.90;2.90;;;6.40;95.00;;;;;;20999249;28;20294;-77
2021/12/07 09:47:20;;;;;;;5.83;2.40;;;6.50;94.70;;;;;;20991327;28;20278;-64
2021/12/07 09:57:22;;;;;;;6.57;2.23;;;6.50;94.40;;;;;;20991996;28;20203;-71
2021/12/07 10:07:24;;;;;;;4.67;2.33;;;6.50;94.30;;;;;;20995801;28;20712;-76
2021/12/07 10:17:26;;;;;;;6.93;2.20;;;6.50;94.30;;;;;;20994473;28;20611;-68
2021/12/07 10:27:34;;;;;;;9.67;2.60;;;6.80;94.00;;;;;;20994555;28;20591;-69
2021/12/07 10:37:36;;;;;;;9.73;2.47;;;6.80;94.10;;;;;;20994210;28;20213;-69
2021/12/07 10:47:37;;;;;;;6.80;2.07;;;7.10;93.20;;;;;;20988026;28;20275;-70
2021/12/07 11:00:20;;;;;;;10.00;2.13;;;6.90;93.00;;;;;;20970451;28;20291;-71
2021/12/07 11:10:30;;;;;;;6.03;2.20;;;6.80;92.90;;;;;;20980307;28;20243;-69
2021/12/07 11:20:32;;;;;;;5.87;1.90;;;6.80;93.20;;;;;;20982883;28;20231;-68
2021/12/07 11:30:34;;;;;;;3.37;2.00;;;6.80;92.90;;;;;;20813661;28;20238;-70
2021/12/07 11:40:39;;;;;;;6.47;2.40;;;6.80;93.00;;;;;;20910015;28;20203;-69
2021/12/07 11:50:49;;;;;;;7.10;2.57;;;6.80;93.40;;;;;;20882800;28;20281;-68
2021/12/07 12:00:57;;;;;;;6.17;2.33;;;6.90;93.00;;;;;;21062209;28;20216;-67
2021/12/07 12:11:03;;;;;;;9.37;2.57;;;6.90;93.00;;;;;;20934457;28;20236;-69
2021/12/07 12:21:37;;;;;;;7.87;3.07;;;7.00;93.20;;;;;;20968388;28;20247;-68
2021/12/07 12:31:55;;;;;;;8.20;2.60;;;7.50;92.60;;;;;;20864353;28;20280;-72
2021/12/07 12:42:00;;;;;;;7.37;2.60;;;7.70;91.90;;;;;;20861941;28;20206;-73
2021/12/07 12:54:19;;;;;;;8.00;2.40;;;7.80;91.20;;;;;;21131122;28;20641;-70
2021/12/07 13:04:28;;;;;;;9.93;2.80;;;7.90;90.80;;;;;;21127355;28;20606;-66
2021/12/07 13:14:32;;;;;;;5.93;2.50;;;7.80;90.10;;;;;;21144269;28;20646;-66
2021/12/07 13:24:40;;;;;;;7.77;2.77;;;7.90;90.00;;;;;;21095193;28;20218;-67
2021/12/07 13:34:41;;;;;;;8.97;2.57;;;7.70;89.70;;;;;;20978113;28;20609;-66
2021/12/07 13:44:54;;;;;;;5.90;2.57;;;7.50;88.90;;;;;;20979187;28;20673;-66
2021/12/07 13:54:59;;;;;;;6.53;2.00;;;7.40;88.50;;;;;;20977942;28;20212;-66
2021/12/07 14:05:08;;;;;;;5.43;2.37;;;7.40;89.10;;;;;;20926149;28;20308;-75
2021/12/07 14:15:30;;;;;;;9.03;2.67;;;7.50;89.40;;;;;;20922564;28;20263;-67
2021/12/07 14:25:31;;;;;;;8.60;3.63;;;7.40;89.70;;;;;;20921204;28;20238;-68
2021/12/07 14:35:33;;;;;;;6.23;2.20;;;7.40;90.20;;;;;;20920563;28;20206;-71
2021/12/07 14:45:35;;;;;;;5.63;2.57;;;7.40;90.40;;;;;;20919206;28;20244;-76
2021/12/07 14:55:38;;;;;;;6.00;2.10;;;7.30;89.60;;;;;;20919014;28;20722;-71
2021/12/07 15:05:39;;;;;;;8.40;2.63;;;7.20;88.90;;;;;;20917933;28;20287;-67
2021/12/07 15:15:41;;;;;;;6.17;2.93;;;7.10;88.60;;;;;;20915512;28;20352;-71
2021/12/07 15:25:48;;;;;;;25.30;13.63;;;7.10;89.30;;;;;;20915119;28;20584;-68
2021/12/07 15:35:50;;;;;;;6.40;3.53;;;7.00;89.40;;;;;;20913930;28;20216;-78
2021/12/07 15:45:51;;;;;;;7.77;3.73;;;7.00;90.00;;;;;;20914596;28;20783;-77
2021/12/07 15:55:53;;;;;;;6.63;2.50;;;6.90;90.20;;;;;;20914709;28;20256;-77
2021/12/07 16:06:04;;;;;;;12.27;3.43;;;6.80;90.30;;;;;;20914091;28;20238;-67
2021/12/07 16:16:14;;;;;;;8.63;4.07;;;6.50;90.30;;;;;;20913494;28;20212;-69
2021/12/07 16:26:17;;;;;;;10.10;3.73;;;6.30;90.50;;;;;;20912068;28;20234;-68
2021/12/07 16:36:21;;;;;;;12.93;5.90;;;6.20;90.80;;;;;;20911680;28;20208;-66
2021/12/07 16:46:22;;;;;;;12.30;5.90;;;6.00;91.00;;;;;;20988357;28;20226;-69
2021/12/07 16:56:25;;;;;;;9.70;5.03;;;5.70;91.00;;;;;;21034090;28;20225;-77
2021/12/07 17:06:27;;;;;;;10.87;5.10;;;5.50;91.20;;;;;;21043517;28;20674;-78
2021/12/07 17:16:30;;;;;;;11.43;5.43;;;5.50;91.20;;;;;;20993744;28;20686;-70
2021/12/07 17:26:32;;;;;;;14.00;5.10;;;5.40;91.50;;;;;;20962653;28;20227;-74
2021/12/07 17:36:35;;;;;;;8.30;4.00;;;5.50;91.90;;;;;;20916902;28;20213;-66
2021/12/07 17:46:39;;;;;;;9.70;4.30;;;5.60;91.80;;;;;;20939336;28;20776;-72
2021/12/07 17:56:42;;;;;;;16.27;5.17;;;5.60;92.00;;;;;;20914071;28;20621;-76
2021/12/07 18:06:44;;;;;;;11.47;4.73;;;5.60;91.90;;;;;;20960350;28;20326;-72
2021/12/07 18:16:49;;;;;;;9.67;4.80;;;5.40;91.90;;;;;;20952681;28;20196;-72
2021/12/07 18:26:58;;;;;;;16.53;7.00;;;5.20;91.60;;;;;;20895238;28;20235;-67
2021/12/07 18:37:00;;;;;;;21.53;9.47;;;5.20;91.70;;;;;;20854557;28;20205;-77
2021/12/07 18:47:02;;;;;;;18.70;9.60;;;5.10;91.60;;;;;;20878082;28;20687;-71
2021/12/07 18:57:05;;;;;;;18.10;8.80;;;5.00;92.00;;;;;;21001823;28;20203;-73
2021/12/07 19:07:07;;;;;;;16.73;7.40;;;5.00;92.20;;;;;;21001049;28;20235;-73
2021/12/07 19:17:09;;;;;;;12.30;7.27;;;4.90;92.00;;;;;;20999126;28;20215;-78
2021/12/07 19:27:10;;;;;;;12.90;7.17;;;4.60;92.00;;;;;;20999023;28;20246;-71
2021/12/07 19:37:13;;;;;;;17.33;8.73;;;4.60;92.10;;;;;;20999136;28;20261;-72
2021/12/07 19:47:14;;;;;;;17.07;9.23;;;4.50;92.20;;;;;;20979869;28;20243;-70
2021/12/07 19:57:16;;;;;;;18.50;11.27;;;4.30;92.30;;;;;;20994066;28;20435;-74
2021/12/07 20:07:18;;;;;;;26.77;11.50;;;4.50;92.60;;;;;;20998712;28;20695;-74
2021/12/07 20:17:21;;;;;;;15.03;8.50;;;4.10;92.70;;;;;;20995751;28;20659;-65
2021/12/07 20:27:23;;;;;;;17.43;8.90;;;4.10;92.80;;;;;;20995945;28;20584;-69
2021/12/07 20:37:24;;;;;;;18.40;7.00;;;4.10;93.10;;;;;;20995886;28;20210;-69
2021/12/07 20:47:27;;;;;;;13.37;6.70;;;4.20;93.20;;;;;;20994742;28;20296;-68
2021/12/07 20:57:28;;;;;;;15.50;6.17;;;4.30;93.00;;;;;;20994658;28;20203;-72
2021/12/07 21:07:30;;;;;;;13.20;6.70;;;4.30;93.20;;;;;;20967589;28;20513;-69
2021/12/07 21:17:32;;;;;;;10.57;6.03;;;4.90;93.00;;;;;;20927761;28;20204;-71
2021/12/07 21:27:35;;;;;;;9.33;4.73;;;4.50;93.10;;;;;;20927069;28;20289;-67
2021/12/07 21:37:39;;;;;;;9.57;5.20;;;4.50;92.90;;;;;;20926595;28;20200;-73
2021/12/07 21:47:41;;;;;;;11.83;5.07;;;4.40;92.50;;;;;;20925190;28;20243;-73
2021/12/07 21:57:43;;;;;;;12.20;5.33;;;4.40;92.40;;;;;;20924709;28;20204;-74
2021/12/07 22:07:46;;;;;;;10.73;5.73;;;4.30;92.40;;;;;;20922437;28;20243;-72
2021/12/07 22:17:48;;;;;;;9.37;5.60;;;4.30;92.70;;;;;;20921732;28;20659;-70
2021/12/07 22:27:50;;;;;;;11.40;4.93;;;4.40;92.40;;;;;;20922465;28;20319;-71
2021/12/07 22:37:52;;;;;;;11.23;4.60;;;4.40;92.60;;;;;;20921559;28;20667;-70
2021/12/07 22:47:54;;;;;;;6.97;3.90;;;4.30;92.50;;;;;;20921077;28;20757;-70
2021/12/07 22:57:57;;;;;;;7.20;3.60;;;4.50;91.90;;;;;;20920171;28;20204;-69
2021/12/07 23:08:00;;;;;;;5.80;3.80;;;4.60;92.10;;;;;;20919316;28;20232;-73
2021/12/07 23:18:09;;;;;;;6.93;3.63;;;4.70;91.10;;;;;;20931918;28;20207;-70
2021/12/07 23:28:13;;;;;;;7.50;4.17;;;4.70;91.40;;;;;;20996315;28;20567;-70
2021/12/07 23:38:16;;;;;;;8.30;3.97;;;4.70;91.00;;;;;;20998897;28;20211;-69
2021/12/07 23:48:19;;;;;;;8.07;4.13;;;4.70;90.80;;;;;;20998892;28;20235;-69
2021/12/07 23:58:21;;;;;;;8.33;3.90;;;4.70;91.10;;;;;;20998097;28;20336;-70
